sensor_id;sensor_type;location;lat;lon;timestamp;P1;durP1;ratioP1;P2;durP2;ratioP2
23617;SDS011;18207;32.078;34.818;2023-08-06T00:00:12;1.13;;;1.00;;
23617;SDS011;18207;32.078;34.818;2023-08-06T00:02:42;2.13;;;1.00;;
23617;SDS011;18207;32.078;34.818;2023-08-06T00:05:13;1.48;;;1.00;;
23617;SDS011;18207;32.078;34.818;2023-08-06T00:07:44;1.25;;;1.20;;
23617;SDS011;18207;32.078;34.818;2023-08-06T00:10:16;1.20;;;1.10;;
23617;SDS011;18207;32.078;34.818;2023-08-06T00:12:47;2.15;;;1.20;;
23617;SDS011;18207;32.078;34.818;2023-08-06T00:15:18;0.95;;;0.95;;
23617;SDS011;18207;32.078;34.818;2023-08-06T00:17:48;1.30;;;1.20;;
23617;SDS011;18207;32.078;34.818;2023-08-06T00:20:18;1.17;;;1.08;;
23617;SDS011;18207;32.078;34.818;2023-08-06T00:22:49;0.90;;;0.90;;
23617;SDS011;18207;32.078;34.818;2023-08-06T00:25:21;0.73;;;0.73;;
23617;SDS011;18207;32.078;34.818;2023-08-06T00:27:52;1.35;;;1.08;;
23617;SDS011;18207;32.078;34.818;2023-08-06T00:30:23;1.25;;;1.15;;
23617;SDS011;18207;32.078;34.818;2023-08-06T00:32:53;1.10;;;1.10;;
23617;SDS011;18207;32.078;34.818;2023-08-06T00:35:23;0.90;;;0.90;;
23617;SDS011;18207;32.078;34.818;2023-08-06T00:37:54;2.38;;;0.88;;
23617;SDS011;18207;32.078;34.818;2023-08-06T00:40:26;1.00;;;1.00;;
23617;SDS011;18207;32.078;34.818;2023-08-06T00:42:58;1.05;;;1.05;;
23617;SDS011;18207;32.078;34.818;2023-08-06T00:45:28;0.98;;;0.90;;
23617;SDS011;18207;32.078;34.818;2023-08-06T00:48:03;0.70;;;0.70;;
23617;SDS011;18207;32.078;34.818;2023-08-06T00:50:35;1.08;;;1.08;;
23617;SDS011;18207;32.078;34.818;2023-08-06T00:53:05;1.38;;;0.95;;
23617;SDS011;18207;32.078;34.818;2023-08-06T00:55:38;0.95;;;0.90;;
23617;SDS011;18207;32.078;34.818;2023-08-06T00:58:10;0.73;;;0.73;;
23617;SDS011;18207;32.078;34.818;2023-08-06T01:00:44;0.90;;;0.90;;
23617;SDS011;18207;32.078;34.818;2023-08-06T01:03:13;0.93;;;0.93;;
23617;SDS011;18207;32.078;34.818;2023-08-06T01:05:44;1.50;;;1.05;;
23617;SDS011;18207;32.078;34.818;2023-08-06T01:08:20;1.08;;;1.08;;
23617;SDS011;18207;32.078;34.818;2023-08-06T01:11:12;0.93;;;0.90;;
23617;SDS011;18207;32.078;34.818;2023-08-06T01:13:58;1.05;;;1.02;;
23617;SDS011;18207;32.078;34.818;2023-08-06T01:16:37;1.05;;;1.02;;
23617;SDS011;18207;32.078;34.818;2023-08-06T01:19:15;0.90;;;0.90;;
23617;SDS011;18207;32.078;34.818;2023-08-06T01:21:47;0.90;;;0.90;;
23617;SDS011;18207;32.078;34.818;2023-08-06T01:24:18;1.23;;;1.13;;
23617;SDS011;18207;32.078;34.818;2023-08-06T01:26:51;1.00;;;1.00;;
23617;SDS011;18207;32.078;34.818;2023-08-06T01:29:34;0.95;;;0.95;;
23617;SDS011;18207;32.078;34.818;2023-08-06T01:32:11;0.85;;;0.75;;
23617;SDS011;18207;32.078;34.818;2023-08-06T01:34:45;0.95;;;0.90;;
23617;SDS011;18207;32.078;34.818;2023-08-06T01:37:20;0.88;;;0.88;;
23617;SDS011;18207;32.078;34.818;2023-08-06T01:39:50;1.15;;;1.10;;
23617;SDS011;18207;32.078;34.818;2023-08-06T01:42:20;1.10;;;1.00;;
23617;SDS011;18207;32.078;34.818;2023-08-06T01:44:50;1.08;;;0.98;;
23617;SDS011;18207;32.078;34.818;2023-08-06T01:47:21;1.00;;;1.00;;
23617;SDS011;18207;32.078;34.818;2023-08-06T01:49:51;0.88;;;0.88;;
23617;SDS011;18207;32.078;34.818;2023-08-06T01:52:24;1.17;;;1.17;;
23617;SDS011;18207;32.078;34.818;2023-08-06T01:54:54;1.25;;;1.17;;
23617;SDS011;18207;32.078;34.818;2023-08-06T01:57:24;1.38;;;1.27;;
23617;SDS011;18207;32.078;34.818;2023-08-06T01:59:55;2.10;;;1.17;;
23617;SDS011;18207;32.078;34.818;2023-08-06T02:02:25;0.98;;;0.98;;
23617;SDS011;18207;32.078;34.818;2023-08-06T02:04:56;1.20;;;1.20;;
23617;SDS011;18207;32.078;34.818;2023-08-06T02:07:28;1.23;;;1.02;;
23617;SDS011;18207;32.078;34.818;2023-08-06T02:09:59;1.30;;;1.20;;
23617;SDS011;18207;32.078;34.818;2023-08-06T02:12:28;1.75;;;0.82;;
23617;SDS011;18207;32.078;34.818;2023-08-06T02:14:59;1.30;;;1.20;;
23617;SDS011;18207;32.078;34.818;2023-08-06T02:17:29;1.75;;;1.10;;
23617;SDS011;18207;32.078;34.818;2023-08-06T02:19:59;1.55;;;1.20;;
23617;SDS011;18207;32.078;34.818;2023-08-06T02:22:31;1.13;;;1.10;;
23617;SDS011;18207;32.078;34.818;2023-08-06T02:25:01;1.05;;;1.05;;
23617;SDS011;18207;32.078;34.818;2023-08-06T02:27:32;1.25;;;1.10;;
23617;SDS011;18207;32.078;34.818;2023-08-06T02:30:02;1.08;;;1.00;;
23617;SDS011;18207;32.078;34.818;2023-08-06T02:32:33;1.15;;;1.05;;
23617;SDS011;18207;32.078;34.818;2023-08-06T02:35:03;0.95;;;0.95;;
23617;SDS011;18207;32.078;34.818;2023-08-06T02:37:37;1.65;;;1.30;;
23617;SDS011;18207;32.078;34.818;2023-08-06T02:40:07;1.33;;;1.00;;
23617;SDS011;18207;32.078;34.818;2023-08-06T02:42:39;1.15;;;1.10;;
23617;SDS011;18207;32.078;34.818;2023-08-06T02:45:08;1.15;;;1.10;;
23617;SDS011;18207;32.078;34.818;2023-08-06T02:47:39;1.17;;;1.10;;
23617;SDS011;18207;32.078;34.818;2023-08-06T02:50:10;1.05;;;0.95;;
23617;SDS011;18207;32.078;34.818;2023-08-06T02:52:42;2.58;;;1.13;;
23617;SDS011;18207;32.078;34.818;2023-08-06T02:55:12;0.90;;;0.90;;
23617;SDS011;18207;32.078;34.818;2023-08-06T02:57:42;1.95;;;1.10;;
23617;SDS011;18207;32.078;34.818;2023-08-06T03:00:13;1.02;;;1.02;;
23617;SDS011;18207;32.078;34.818;2023-08-06T03:02:43;1.23;;;1.10;;
23617;SDS011;18207;32.078;34.818;2023-08-06T03:05:14;1.10;;;1.10;;
23617;SDS011;18207;32.078;34.818;2023-08-06T03:07:46;1.13;;;0.90;;
23617;SDS011;18207;32.078;34.818;2023-08-06T03:10:17;0.98;;;0.98;;
23617;SDS011;18207;32.078;34.818;2023-08-06T03:13:05;1.38;;;1.25;;
23617;SDS011;18207;32.078;34.818;2023-08-06T03:15:36;1.73;;;1.40;;
23617;SDS011;18207;32.078;34.818;2023-08-06T03:18:06;1.85;;;1.23;;
23617;SDS011;18207;32.078;34.818;2023-08-06T03:20:36;1.20;;;1.10;;
23617;SDS011;18207;32.078;34.818;2023-08-06T03:23:08;1.15;;;1.15;;
23617;SDS011;18207;32.078;34.818;2023-08-06T03:25:38;1.63;;;1.17;;
23617;SDS011;18207;32.078;34.818;2023-08-06T03:28:09;1.50;;;1.40;;
23617;SDS011;18207;32.078;34.818;2023-08-06T03:30:45;1.40;;;1.30;;
23617;SDS011;18207;32.078;34.818;2023-08-06T03:33:15;1.30;;;1.20;;
23617;SDS011;18207;32.078;34.818;2023-08-06T03:35:45;1.10;;;1.10;;
23617;SDS011;18207;32.078;34.818;2023-08-06T03:38:17;1.30;;;1.23;;
23617;SDS011;18207;32.078;34.818;2023-08-06T03:40:48;1.42;;;1.33;;
23617;SDS011;18207;32.078;34.818;2023-08-06T03:43:18;1.40;;;1.25;;
23617;SDS011;18207;32.078;34.818;2023-08-06T03:45:48;1.42;;;1.27;;
23617;SDS011;18207;32.078;34.818;2023-08-06T03:48:18;1.15;;;1.15;;
23617;SDS011;18207;32.078;34.818;2023-08-06T03:50:48;1.27;;;1.20;;
23617;SDS011;18207;32.078;34.818;2023-08-06T03:53:20;1.10;;;1.10;;
23617;SDS011;18207;32.078;34.818;2023-08-06T03:55:51;1.30;;;1.20;;
23617;SDS011;18207;32.078;34.818;2023-08-06T03:58:22;1.40;;;1.10;;
23617;SDS011;18207;32.078;34.818;2023-08-06T04:00:57;1.10;;;1.10;;
23617;SDS011;18207;32.078;34.818;2023-08-06T04:03:28;1.30;;;1.20;;
23617;SDS011;18207;32.078;34.818;2023-08-06T04:05:59;0.98;;;0.98;;
23617;SDS011;18207;32.078;34.818;2023-08-06T04:08:34;1.23;;;1.10;;
23617;SDS011;18207;32.078;34.818;2023-08-06T04:11:04;1.20;;;1.10;;
23617;SDS011;18207;32.078;34.818;2023-08-06T04:13:35;1.13;;;1.13;;
23617;SDS011;18207;32.078;34.818;2023-08-06T04:16:05;1.58;;;1.35;;
23617;SDS011;18207;32.078;34.818;2023-08-06T04:18:35;2.53;;;1.30;;
23617;SDS011;18207;32.078;34.818;2023-08-06T04:21:05;1.75;;;1.40;;
23617;SDS011;18207;32.078;34.818;2023-08-06T04:23:38;1.02;;;1.02;;
23617;SDS011;18207;32.078;34.818;2023-08-06T04:26:08;1.95;;;1.50;;
23617;SDS011;18207;32.078;34.818;2023-08-06T04:28:39;1.20;;;1.20;;
23617;SDS011;18207;32.078;34.818;2023-08-06T04:31:08;1.70;;;1.40;;
23617;SDS011;18207;32.078;34.818;2023-08-06T04:33:39;1.52;;;1.33;;
23617;SDS011;18207;32.078;34.818;2023-08-06T04:36:10;1.50;;;1.40;;
23617;SDS011;18207;32.078;34.818;2023-08-06T04:38:43;1.60;;;1.50;;
23617;SDS011;18207;32.078;34.818;2023-08-06T04:41:14;1.40;;;1.30;;
23617;SDS011;18207;32.078;34.818;2023-08-06T04:43:45;1.52;;;1.42;;
23617;SDS011;18207;32.078;34.818;2023-08-06T04:46:15;1.35;;;1.23;;
23617;SDS011;18207;32.078;34.818;2023-08-06T04:48:45;1.42;;;1.40;;
23617;SDS011;18207;32.078;34.818;2023-08-06T04:51:16;1.30;;;1.30;;
23617;SDS011;18207;32.078;34.818;2023-08-06T04:53:48;1.77;;;1.42;;
23617;SDS011;18207;32.078;34.818;2023-08-06T04:56:19;1.58;;;1.48;;
23617;SDS011;18207;32.078;34.818;2023-08-06T04:58:50;1.50;;;1.40;;
23617;SDS011;18207;32.078;34.818;2023-08-06T05:01:20;2.78;;;1.38;;
23617;SDS011;18207;32.078;34.818;2023-08-06T05:03:50;1.35;;;1.30;;
23617;SDS011;18207;32.078;34.818;2023-08-06T05:06:20;1.40;;;1.30;;
23617;SDS011;18207;32.078;34.818;2023-08-06T05:08:53;1.35;;;1.25;;
23617;SDS011;18207;32.078;34.818;2023-08-06T05:11:23;1.17;;;1.17;;
23617;SDS011;18207;32.078;34.818;2023-08-06T05:13:54;1.80;;;1.42;;
23617;SDS011;18207;32.078;34.818;2023-08-06T05:16:24;1.30;;;1.20;;
23617;SDS011;18207;32.078;34.818;2023-08-06T05:18:54;1.40;;;1.30;;
23617;SDS011;18207;32.078;34.818;2023-08-06T05:21:24;1.40;;;1.33;;
23617;SDS011;18207;32.078;34.818;2023-08-06T05:23:56;1.35;;;1.25;;
23617;SDS011;18207;32.078;34.818;2023-08-06T05:26:27;0.95;;;0.95;;
23617;SDS011;18207;32.078;34.818;2023-08-06T05:28:57;0.82;;;0.82;;
23617;SDS011;18207;32.078;34.818;2023-08-06T05:31:28;1.00;;;1.00;;
23617;SDS011;18207;32.078;34.818;2023-08-06T05:33:58;0.88;;;0.88;;
23617;SDS011;18207;32.078;34.818;2023-08-06T05:36:28;1.30;;;1.20;;
23617;SDS011;18207;32.078;34.818;2023-08-06T05:39:00;1.02;;;1.02;;
23617;SDS011;18207;32.078;34.818;2023-08-06T05:41:30;0.88;;;0.88;;
23617;SDS011;18207;32.078;34.818;2023-08-06T05:44:01;0.80;;;0.80;;
23617;SDS011;18207;32.078;34.818;2023-08-06T05:46:31;1.40;;;1.00;;
23617;SDS011;18207;32.078;34.818;2023-08-06T05:49:01;1.20;;;1.10;;
23617;SDS011;18207;32.078;34.818;2023-08-06T05:51:32;0.93;;;0.90;;
23617;SDS011;18207;32.078;34.818;2023-08-06T05:54:04;0.90;;;0.90;;
23617;SDS011;18207;32.078;34.818;2023-08-06T05:56:34;1.15;;;1.05;;
23617;SDS011;18207;32.078;34.818;2023-08-06T05:59:04;1.30;;;1.10;;
23617;SDS011;18207;32.078;34.818;2023-08-06T06:01:35;0.95;;;0.93;;
23617;SDS011;18207;32.078;34.818;2023-08-06T06:04:06;1.02;;;0.95;;
23617;SDS011;18207;32.078;34.818;2023-08-06T06:06:39;0.85;;;0.80;;
23617;SDS011;18207;32.078;34.818;2023-08-06T06:09:11;0.90;;;0.90;;
23617;SDS011;18207;32.078;34.818;2023-08-06T06:11:42;0.82;;;0.82;;
23617;SDS011;18207;32.078;34.818;2023-08-06T06:14:11;1.00;;;0.93;;
23617;SDS011;18207;32.078;34.818;2023-08-06T06:16:41;0.88;;;0.88;;
23617;SDS011;18207;32.078;34.818;2023-08-06T06:19:12;0.98;;;0.98;;
23617;SDS011;18207;32.078;34.818;2023-08-06T06:21:42;1.20;;;1.20;;
23617;SDS011;18207;32.078;34.818;2023-08-06T06:24:15;1.58;;;1.02;;
23617;SDS011;18207;32.078;34.818;2023-08-06T06:26:44;1.27;;;1.17;;
23617;SDS011;18207;32.078;34.818;2023-08-06T06:29:15;1.05;;;1.05;;
23617;SDS011;18207;32.078;34.818;2023-08-06T06:31:45;1.00;;;0.90;;
23617;SDS011;18207;32.078;34.818;2023-08-06T06:34:16;1.10;;;1.00;;
23617;SDS011;18207;32.078;34.818;2023-08-06T06:36:46;1.23;;;1.13;;
23617;SDS011;18207;32.078;34.818;2023-08-06T06:39:18;1.73;;;1.17;;
23617;SDS011;18207;32.078;34.818;2023-08-06T06:41:50;1.35;;;1.25;;
23617;SDS011;18207;32.078;34.818;2023-08-06T06:44:20;1.10;;;1.10;;
23617;SDS011;18207;32.078;34.818;2023-08-06T06:46:50;1.25;;;1.20;;
23617;SDS011;18207;32.078;34.818;2023-08-06T06:49:19;1.10;;;1.00;;
23617;SDS011;18207;32.078;34.818;2023-08-06T06:51:50;1.23;;;1.20;;
23617;SDS011;18207;32.078;34.818;2023-08-06T06:54:23;1.20;;;1.02;;
23617;SDS011;18207;32.078;34.818;2023-08-06T06:56:53;1.10;;;1.00;;
23617;SDS011;18207;32.078;34.818;2023-08-06T06:59:23;0.77;;;0.70;;
23617;SDS011;18207;32.078;34.818;2023-08-06T07:01:54;1.00;;;1.00;;
23617;SDS011;18207;32.078;34.818;2023-08-06T07:04:25;0.80;;;0.80;;
23617;SDS011;18207;32.078;34.818;2023-08-06T07:06:54;1.15;;;1.05;;
23617;SDS011;18207;32.078;34.818;2023-08-06T07:09:27;1.17;;;1.10;;
23617;SDS011;18207;32.078;34.818;2023-08-06T07:11:57;1.02;;;1.02;;
23617;SDS011;18207;32.078;34.818;2023-08-06T07:14:28;1.30;;;1.20;;
23617;SDS011;18207;32.078;34.818;2023-08-06T07:16:59;0.98;;;0.98;;
23617;SDS011;18207;32.078;34.818;2023-08-06T07:19:29;0.88;;;0.88;;
23617;SDS011;18207;32.078;34.818;2023-08-06T07:21:59;1.40;;;1.30;;
23617;SDS011;18207;32.078;34.818;2023-08-06T07:24:30;0.90;;;0.90;;
23617;SDS011;18207;32.078;34.818;2023-08-06T07:27:01;0.85;;;0.85;;
23617;SDS011;18207;32.078;34.818;2023-08-06T07:29:32;0.98;;;0.98;;
23617;SDS011;18207;32.078;34.818;2023-08-06T07:32:02;0.85;;;0.85;;
23617;SDS011;18207;32.078;34.818;2023-08-06T07:34:35;1.02;;;1.02;;
23617;SDS011;18207;32.078;34.818;2023-08-06T07:37:05;1.08;;;0.88;;
23617;SDS011;18207;32.078;34.818;2023-08-06T07:39:46;0.90;;;0.90;;
23617;SDS011;18207;32.078;34.818;2023-08-06T07:42:16;0.88;;;0.88;;
23617;SDS011;18207;32.078;34.818;2023-08-06T07:44:50;0.90;;;0.90;;
23617;SDS011;18207;32.078;34.818;2023-08-06T07:47:23;0.85;;;0.85;;
23617;SDS011;18207;32.078;34.818;2023-08-06T07:49:54;1.15;;;0.82;;
23617;SDS011;18207;32.078;34.818;2023-08-06T07:52:24;0.90;;;0.90;;
23617;SDS011;18207;32.078;34.818;2023-08-06T07:54:57;0.90;;;0.90;;
23617;SDS011;18207;32.078;34.818;2023-08-06T07:57:28;0.95;;;0.95;;
23617;SDS011;18207;32.078;34.818;2023-08-06T07:59:58;0.88;;;0.88;;
23617;SDS011;18207;32.078;34.818;2023-08-06T08:02:29;0.80;;;0.80;;
23617;SDS011;18207;32.078;34.818;2023-08-06T08:04:59;1.40;;;0.65;;
23617;SDS011;18207;32.078;34.818;2023-08-06T08:07:29;0.90;;;0.90;;
23617;SDS011;18207;32.078;34.818;2023-08-06T08:10:02;1.55;;;1.00;;
23617;SDS011;18207;32.078;34.818;2023-08-06T08:12:33;0.80;;;0.77;;
23617;SDS011;18207;32.078;34.818;2023-08-06T08:15:04;1.08;;;0.70;;
23617;SDS011;18207;32.078;34.818;2023-08-06T08:17:35;1.33;;;0.93;;
23617;SDS011;18207;32.078;34.818;2023-08-06T08:20:05;1.25;;;1.15;;
23617;SDS011;18207;32.078;34.818;2023-08-06T08:22:37;1.00;;;1.00;;
23617;SDS011;18207;32.078;34.818;2023-08-06T08:25:09;1.00;;;1.00;;
23617;SDS011;18207;32.078;34.818;2023-08-06T08:27:39;0.77;;;0.77;;
23617;SDS011;18207;32.078;34.818;2023-08-06T08:30:09;1.20;;;1.20;;
23617;SDS011;18207;32.078;34.818;2023-08-06T08:32:39;0.90;;;0.90;;
23617;SDS011;18207;32.078;34.818;2023-08-06T08:35:10;1.20;;;1.10;;
23617;SDS011;18207;32.078;34.818;2023-08-06T08:37:43;0.80;;;0.80;;
23617;SDS011;18207;32.078;34.818;2023-08-06T08:40:15;0.68;;;0.68;;
23617;SDS011;18207;32.078;34.818;2023-08-06T08:42:45;0.88;;;0.88;;
23617;SDS011;18207;32.078;34.818;2023-08-06T08:45:16;0.88;;;0.88;;
23617;SDS011;18207;32.078;34.818;2023-08-06T08:47:49;0.90;;;0.90;;
23617;SDS011;18207;32.078;34.818;2023-08-06T08:50:20;0.80;;;0.80;;
23617;SDS011;18207;32.078;34.818;2023-08-06T08:52:51;0.73;;;0.73;;
23617;SDS011;18207;32.078;34.818;2023-08-06T08:55:24;0.80;;;0.80;;
23617;SDS011;18207;32.078;34.818;2023-08-06T08:57:54;0.85;;;0.85;;
23617;SDS011;18207;32.078;34.818;2023-08-06T09:00:25;0.75;;;0.75;;
23617;SDS011;18207;32.078;34.818;2023-08-06T09:02:57;0.88;;;0.88;;
23617;SDS011;18207;32.078;34.818;2023-08-06T09:05:31;0.73;;;0.73;;
23617;SDS011;18207;32.078;34.818;2023-08-06T09:08:03;0.60;;;0.60;;
23617;SDS011;18207;32.078;34.818;2023-08-06T09:10:36;0.85;;;0.85;;
23617;SDS011;18207;32.078;34.818;2023-08-06T09:13:07;0.70;;;0.70;;
23617;SDS011;18207;32.078;34.818;2023-08-06T09:15:39;0.80;;;0.80;;
23617;SDS011;18207;32.078;34.818;2023-08-06T09:18:11;0.70;;;0.70;;
23617;SDS011;18207;32.078;34.818;2023-08-06T09:20:42;1.00;;;0.90;;
23617;SDS011;18207;32.078;34.818;2023-08-06T09:23:12;1.08;;;0.80;;
23617;SDS011;18207;32.078;34.818;2023-08-06T09:25:45;0.90;;;0.90;;
23617;SDS011;18207;32.078;34.818;2023-08-06T09:28:15;0.90;;;0.90;;
23617;SDS011;18207;32.078;34.818;2023-08-06T09:30:46;0.60;;;0.60;;
23617;SDS011;18207;32.078;34.818;2023-08-06T09:33:17;0.70;;;0.70;;
23617;SDS011;18207;32.078;34.818;2023-08-06T09:35:48;0.60;;;0.60;;
23617;SDS011;18207;32.078;34.818;2023-08-06T09:38:22;0.73;;;0.73;;
23617;SDS011;18207;32.078;34.818;2023-08-06T09:40:54;0.73;;;0.73;;
23617;SDS011;18207;32.078;34.818;2023-08-06T09:43:24;0.90;;;0.90;;
23617;SDS011;18207;32.078;34.818;2023-08-06T09:45:55;1.08;;;0.75;;
23617;SDS011;18207;32.078;34.818;2023-08-06T09:48:25;0.63;;;0.63;;
23617;SDS011;18207;32.078;34.818;2023-08-06T09:50:55;0.68;;;0.68;;
23617;SDS011;18207;32.078;34.818;2023-08-06T09:53:26;0.82;;;0.82;;
23617;SDS011;18207;32.078;34.818;2023-08-06T09:55:59;0.80;;;0.80;;
23617;SDS011;18207;32.078;34.818;2023-08-06T09:58:29;0.73;;;0.73;;
23617;SDS011;18207;32.078;34.818;2023-08-06T10:01:01;0.70;;;0.70;;
23617;SDS011;18207;32.078;34.818;2023-08-06T10:03:33;0.80;;;0.80;;
23617;SDS011;18207;32.078;34.818;2023-08-06T10:06:06;0.80;;;0.80;;
23617;SDS011;18207;32.078;34.818;2023-08-06T10:08:36;0.80;;;0.80;;
23617;SDS011;18207;32.078;34.818;2023-08-06T10:11:09;0.88;;;0.65;;
23617;SDS011;18207;32.078;34.818;2023-08-06T10:13:41;0.77;;;0.77;;
23617;SDS011;18207;32.078;34.818;2023-08-06T10:16:13;0.55;;;0.55;;
23617;SDS011;18207;32.078;34.818;2023-08-06T10:18:45;0.73;;;0.73;;
23617;SDS011;18207;32.078;34.818;2023-08-06T10:21:19;0.73;;;0.73;;
23617;SDS011;18207;32.078;34.818;2023-08-06T10:23:55;0.80;;;0.80;;
23617;SDS011;18207;32.078;34.818;2023-08-06T10:26:29;0.52;;;0.52;;
23617;SDS011;18207;32.078;34.818;2023-08-06T10:28:59;0.70;;;0.70;;
23617;SDS011;18207;32.078;34.818;2023-08-06T10:37:29;0.70;;;0.70;;
23617;SDS011;18207;32.078;34.818;2023-08-06T10:40:07;0.50;;;0.50;;
23617;SDS011;18207;32.078;34.818;2023-08-06T10:42:40;0.80;;;0.80;;
23617;SDS011;18207;32.078;34.818;2023-08-06T10:45:17;0.80;;;0.80;;
23617;SDS011;18207;32.078;34.818;2023-08-06T10:47:51;1.10;;;0.85;;
23617;SDS011;18207;32.078;34.818;2023-08-06T10:50:21;0.55;;;0.55;;
23617;SDS011;18207;32.078;34.818;2023-08-06T10:52:55;0.68;;;0.68;;
23617;SDS011;18207;32.078;34.818;2023-08-06T10:55:26;0.52;;;0.52;;
23617;SDS011;18207;32.078;34.818;2023-08-06T10:57:59;0.90;;;0.90;;
23617;SDS011;18207;32.078;34.818;2023-08-06T11:00:29;0.73;;;0.73;;
23617;SDS011;18207;32.078;34.818;2023-08-06T11:03:02;0.80;;;0.80;;
23617;SDS011;18207;32.078;34.818;2023-08-06T11:05:48;0.80;;;0.80;;
23617;SDS011;18207;32.078;34.818;2023-08-06T11:08:23;0.75;;;0.75;;
23617;SDS011;18207;32.078;34.818;2023-08-06T11:10:55;0.85;;;0.60;;
23617;SDS011;18207;32.078;34.818;2023-08-06T11:13:41;0.70;;;0.70;;
23617;SDS011;18207;32.078;34.818;2023-08-06T11:16:13;1.42;;;0.93;;
23617;SDS011;18207;32.078;34.818;2023-08-06T11:18:46;0.75;;;0.75;;
23617;SDS011;18207;32.078;34.818;2023-08-06T11:21:20;0.70;;;0.70;;
23617;SDS011;18207;32.078;34.818;2023-08-06T11:23:54;0.57;;;0.57;;
23617;SDS011;18207;32.078;34.818;2023-08-06T11:26:25;0.73;;;0.73;;
23617;SDS011;18207;32.078;34.818;2023-08-06T11:29:03;0.82;;;0.82;;
23617;SDS011;18207;32.078;34.818;2023-08-06T11:31:43;0.80;;;0.80;;
23617;SDS011;18207;32.078;34.818;2023-08-06T11:34:13;0.63;;;0.63;;
23617;SDS011;18207;32.078;34.818;2023-08-06T11:36:43;0.93;;;0.93;;
23617;SDS011;18207;32.078;34.818;2023-08-06T11:39:13;0.80;;;0.80;;
23617;SDS011;18207;32.078;34.818;2023-08-06T11:41:44;0.75;;;0.75;;
23617;SDS011;18207;32.078;34.818;2023-08-06T11:44:17;0.63;;;0.63;;
23617;SDS011;18207;32.078;34.818;2023-08-06T11:46:50;0.80;;;0.80;;
23617;SDS011;18207;32.078;34.818;2023-08-06T11:49:37;0.73;;;0.73;;
23617;SDS011;18207;32.078;34.818;2023-08-06T11:52:12;1.00;;;0.90;;
23617;SDS011;18207;32.078;34.818;2023-08-06T11:54:46;0.95;;;0.95;;
23617;SDS011;18207;32.078;34.818;2023-08-06T11:57:30;0.70;;;0.70;;
23617;SDS011;18207;32.078;34.818;2023-08-06T12:00:05;0.90;;;0.90;;
23617;SDS011;18207;32.078;34.818;2023-08-06T12:02:39;0.80;;;0.80;;
23617;SDS011;18207;32.078;34.818;2023-08-06T12:05:11;0.70;;;0.70;;
23617;SDS011;18207;32.078;34.818;2023-08-06T12:07:43;0.65;;;0.65;;
23617;SDS011;18207;32.078;34.818;2023-08-06T12:10:16;0.60;;;0.60;;
23617;SDS011;18207;32.078;34.818;2023-08-06T12:12:50;0.70;;;0.70;;
23617;SDS011;18207;32.078;34.818;2023-08-06T12:15:23;0.80;;;0.80;;
23617;SDS011;18207;32.078;34.818;2023-08-06T12:17:54;1.20;;;0.80;;
23617;SDS011;18207;32.078;34.818;2023-08-06T12:20:24;0.70;;;0.70;;
23617;SDS011;18207;32.078;34.818;2023-08-06T12:22:55;0.65;;;0.65;;
23617;SDS011;18207;32.078;34.818;2023-08-06T12:25:25;0.60;;;0.60;;
23617;SDS011;18207;32.078;34.818;2023-08-06T12:27:56;0.90;;;0.90;;
23617;SDS011;18207;32.078;34.818;2023-08-06T12:30:28;0.70;;;0.70;;
23617;SDS011;18207;32.078;34.818;2023-08-06T12:32:59;0.90;;;0.80;;
23617;SDS011;18207;32.078;34.818;2023-08-06T12:35:29;0.60;;;0.60;;
23617;SDS011;18207;32.078;34.818;2023-08-06T12:38:00;1.00;;;1.00;;
23617;SDS011;18207;32.078;34.818;2023-08-06T12:40:32;0.50;;;0.50;;
23617;SDS011;18207;32.078;34.818;2023-08-06T12:43:06;0.75;;;0.75;;
23617;SDS011;18207;32.078;34.818;2023-08-06T12:45:38;1.08;;;0.98;;
23617;SDS011;18207;32.078;34.818;2023-08-06T12:48:08;0.80;;;0.77;;
23617;SDS011;18207;32.078;34.818;2023-08-06T12:50:40;0.80;;;0.80;;
23617;SDS011;18207;32.078;34.818;2023-08-06T12:53:11;0.77;;;0.77;;
23617;SDS011;18207;32.078;34.818;2023-08-06T12:55:41;0.52;;;0.45;;
23617;SDS011;18207;32.078;34.818;2023-08-06T12:58:11;0.70;;;0.68;;
23617;SDS011;18207;32.078;34.818;2023-08-06T13:00:43;0.60;;;0.60;;
23617;SDS011;18207;32.078;34.818;2023-08-06T13:03:14;0.52;;;0.52;;
23617;SDS011;18207;32.078;34.818;2023-08-06T13:05:44;0.52;;;0.52;;
23617;SDS011;18207;32.078;34.818;2023-08-06T13:08:15;0.73;;;0.73;;
23617;SDS011;18207;32.078;34.818;2023-08-06T13:10:47;0.70;;;0.70;;
23617;SDS011;18207;32.078;34.818;2023-08-06T13:13:18;0.75;;;0.75;;
23617;SDS011;18207;32.078;34.818;2023-08-06T13:15:51;0.70;;;0.70;;
23617;SDS011;18207;32.078;34.818;2023-08-06T13:18:21;0.90;;;0.90;;
23617;SDS011;18207;32.078;34.818;2023-08-06T13:20:53;0.70;;;0.70;;
23617;SDS011;18207;32.078;34.818;2023-08-06T13:23:23;0.63;;;0.63;;
23617;SDS011;18207;32.078;34.818;2023-08-06T13:25:53;0.60;;;0.60;;
23617;SDS011;18207;32.078;34.818;2023-08-06T13:28:25;0.43;;;0.43;;
23617;SDS011;18207;32.078;34.818;2023-08-06T13:30:58;0.60;;;0.60;;
23617;SDS011;18207;32.078;34.818;2023-08-06T13:33:28;0.55;;;0.52;;
23617;SDS011;18207;32.078;34.818;2023-08-06T13:35:59;0.88;;;0.85;;
23617;SDS011;18207;32.078;34.818;2023-08-06T13:38:30;0.70;;;0.70;;
23617;SDS011;18207;32.078;34.818;2023-08-06T13:41:02;0.70;;;0.70;;
23617;SDS011;18207;32.078;34.818;2023-08-06T13:43:33;0.60;;;0.60;;
23617;SDS011;18207;32.078;34.818;2023-08-06T13:46:04;0.70;;;0.70;;
23617;SDS011;18207;32.078;34.818;2023-08-06T13:48:37;0.68;;;0.68;;
23617;SDS011;18207;32.078;34.818;2023-08-06T13:51:08;0.80;;;0.80;;
23617;SDS011;18207;32.078;34.818;2023-08-06T13:53:41;0.70;;;0.70;;
23617;SDS011;18207;32.078;34.818;2023-08-06T13:56:12;0.63;;;0.63;;
23617;SDS011;18207;32.078;34.818;2023-08-06T13:58:44;0.60;;;0.60;;
23617;SDS011;18207;32.078;34.818;2023-08-06T14:01:16;0.82;;;0.70;;
23617;SDS011;18207;32.078;34.818;2023-08-06T14:04:08;0.60;;;0.60;;
23617;SDS011;18207;32.078;34.818;2023-08-06T14:06:38;0.75;;;0.75;;
23617;SDS011;18207;32.078;34.818;2023-08-06T14:09:08;0.63;;;0.63;;
23617;SDS011;18207;32.078;34.818;2023-08-06T14:11:42;0.60;;;0.60;;
23617;SDS011;18207;32.078;34.818;2023-08-06T14:14:12;0.85;;;0.85;;
23617;SDS011;18207;32.078;34.818;2023-08-06T14:16:45;0.65;;;0.65;;
23617;SDS011;18207;32.078;34.818;2023-08-06T14:19:16;0.65;;;0.65;;
23617;SDS011;18207;32.078;34.818;2023-08-06T14:21:48;0.95;;;0.95;;
23617;SDS011;18207;32.078;34.818;2023-08-06T14:24:18;0.60;;;0.60;;
23617;SDS011;18207;32.078;34.818;2023-08-06T14:26:49;0.63;;;0.63;;
23617;SDS011;18207;32.078;34.818;2023-08-06T14:29:20;0.77;;;0.50;;
23617;SDS011;18207;32.078;34.818;2023-08-06T14:31:55;0.50;;;0.50;;
23617;SDS011;18207;32.078;34.818;2023-08-06T14:34:26;0.70;;;0.70;;
23617;SDS011;18207;32.078;34.818;2023-08-06T14:36:58;0.57;;;0.57;;
23617;SDS011;18207;32.078;34.818;2023-08-06T14:39:29;0.52;;;0.52;;
23617;SDS011;18207;32.078;34.818;2023-08-06T14:42:00;0.52;;;0.52;;
23617;SDS011;18207;32.078;34.818;2023-08-06T14:44:32;0.80;;;0.80;;
23617;SDS011;18207;32.078;34.818;2023-08-06T14:47:05;0.73;;;0.73;;
23617;SDS011;18207;32.078;34.818;2023-08-06T14:49:35;0.70;;;0.70;;
23617;SDS011;18207;32.078;34.818;2023-08-06T14:52:09;0.70;;;0.70;;
23617;SDS011;18207;32.078;34.818;2023-08-06T14:54:40;0.70;;;0.70;;
23617;SDS011;18207;32.078;34.818;2023-08-06T14:57:10;0.50;;;0.50;;
23617;SDS011;18207;32.078;34.818;2023-08-06T14:59:41;1.45;;;0.60;;
23617;SDS011;18207;32.078;34.818;2023-08-06T15:02:13;0.75;;;0.75;;
23617;SDS011;18207;32.078;34.818;2023-08-06T15:04:43;0.52;;;0.52;;